createdAt,value
2024-05-09T00:00:40.376Z,87.00
2024-05-09T00:03:09.238Z,86.48
2024-05-09T00:05:37.519Z,86.86
2024-05-09T00:08:05.148Z,85.92
2024-05-09T00:10:37.603Z,87.24
2024-05-09T00:13:05.973Z,86.70
2024-05-09T00:15:33.933Z,86.65
2024-05-09T00:18:01.380Z,86.06
2024-05-09T00:20:36.485Z,86.36
2024-05-09T00:23:07.488Z,87.29
2024-05-09T00:25:37.665Z,87.90
2024-05-09T00:28:05.025Z,87.88
2024-05-09T00:30:35.290Z,87.36
2024-05-09T00:33:04.566Z,88.25
2024-05-09T00:35:32.108Z,88.17
2024-05-09T00:37:59.006Z,87.52
2024-05-09T00:40:35.393Z,86.63
2024-05-09T00:43:08.970Z,86.63
2024-05-09T00:45:35.829Z,87.14
2024-05-09T00:48:06.698Z,86.44
2024-05-09T00:50:37.015Z,86.53
2024-05-09T00:53:05.209Z,87.38
2024-05-09T00:55:32.151Z,88.28
2024-05-09T00:57:58.855Z,87.36
2024-05-09T01:00:35.712Z,87.03
2024-05-09T01:03:06.696Z,86.51
2024-05-09T01:05:34.661Z,86.72
2024-05-09T01:08:01.911Z,86.88
2024-05-09T01:10:34.294Z,87.42
2024-05-09T01:13:02.880Z,87.52
2024-05-09T01:15:32.640Z,87.57
2024-05-09T01:18:00.989Z,88.20
2024-05-09T01:20:37.421Z,88.38
2024-05-09T01:23:12.688Z,87.43
2024-05-09T01:25:40.490Z,87.25
2024-05-09T01:28:07.411Z,87.22
2024-05-09T01:30:36.615Z,87.98
2024-05-09T01:33:06.246Z,88.42
2024-05-09T01:35:34.694Z,88.83
2024-05-09T01:38:01.528Z,88.36
2024-05-09T01:40:38.206Z,87.82
2024-05-09T01:43:07.202Z,87.68
2024-05-09T01:45:33.852Z,86.50
2024-05-09T01:48:01.033Z,88.32
2024-05-09T01:50:37.563Z,88.58
2024-05-09T01:53:07.815Z,88.14
2024-05-09T01:55:37.362Z,88.30
2024-05-09T01:58:04.412Z,88.34
2024-05-09T02:00:38.682Z,88.02
2024-05-09T02:03:09.682Z,87.42
2024-05-09T02:05:36.977Z,87.66
2024-05-09T02:08:04.249Z,87.15
2024-05-09T02:10:32.950Z,87.27
2024-05-09T02:13:02.843Z,86.60
2024-05-09T02:15:29.510Z,87.86
2024-05-09T02:17:56.354Z,87.67
2024-05-09T02:20:30.544Z,88.57
2024-05-09T02:23:03.643Z,88.62
2024-05-09T02:25:30.614Z,87.59
2024-05-09T02:27:57.324Z,87.63
2024-05-09T02:30:36.512Z,88.08
2024-05-09T02:33:08.089Z,87.70
2024-05-09T02:35:35.739Z,88.52
2024-05-09T02:38:02.549Z,88.41
2024-05-09T02:40:36.547Z,87.88
2024-05-09T02:43:05.894Z,88.56
2024-05-09T02:45:35.173Z,88.51
2024-05-09T02:48:02.416Z,88.26
2024-05-09T02:50:36.738Z,87.76
2024-05-09T02:53:06.361Z,88.58
2024-05-09T02:55:33.263Z,88.54
2024-05-09T02:58:00.014Z,88.51
2024-05-09T03:00:35.139Z,88.55
2024-05-09T03:03:10.349Z,88.75
2024-05-09T03:05:39.791Z,88.54
2024-05-09T03:08:07.339Z,87.87
2024-05-09T03:10:36.735Z,88.34
2024-05-09T03:13:06.323Z,87.81
2024-05-09T03:15:33.245Z,87.62
2024-05-09T03:18:01.027Z,87.71
2024-05-09T03:20:34.547Z,88.34
2024-05-09T03:23:03.203Z,88.28
2024-05-09T03:25:30.157Z,88.71
2024-05-09T03:27:56.898Z,88.34
2024-05-09T03:30:38.199Z,88.97
2024-05-09T03:33:10.071Z,87.83
2024-05-09T03:35:39.712Z,87.40
2024-05-09T03:38:06.540Z,87.30
2024-05-09T03:40:33.252Z,88.08
2024-05-09T03:42:59.993Z,88.92
2024-05-09T03:45:26.671Z,89.52
2024-05-09T03:47:53.644Z,87.67
2024-05-09T03:50:26.446Z,88.94
2024-05-09T03:53:02.893Z,87.80
2024-05-09T03:55:29.824Z,88.15
2024-05-09T03:57:57.455Z,88.64
2024-05-09T04:00:31.343Z,88.74
2024-05-09T04:03:05.770Z,89.22
2024-05-09T04:05:34.221Z,89.26
2024-05-09T04:08:04.328Z,88.62
2024-05-09T04:10:33.982Z,88.98
2024-05-09T04:13:01.952Z,88.98
2024-05-09T04:15:28.870Z,88.77
2024-05-09T04:17:56.138Z,88.57
2024-05-09T04:20:33.617Z,88.83
2024-05-09T04:23:10.163Z,88.99
2024-05-09T04:25:37.012Z,88.99
2024-05-09T04:28:04.226Z,88.03
2024-05-09T04:30:37.546Z,88.00
2024-05-09T04:33:08.824Z,87.89
2024-05-09T04:35:38.016Z,88.02
2024-05-09T04:38:08.050Z,88.12
2024-05-09T04:40:36.763Z,88.08
2024-05-09T04:43:04.932Z,88.65
2024-05-09T04:45:31.895Z,88.67
2024-05-09T04:47:58.986Z,88.49
2024-05-09T04:50:35.122Z,88.79
2024-05-09T04:53:09.518Z,88.72
2024-05-09T04:55:37.522Z,89.15
2024-05-09T04:58:05.516Z,88.45
2024-05-09T05:00:36.924Z,88.68
2024-05-09T05:03:07.185Z,88.60
2024-05-09T05:05:37.228Z,89.01
2024-05-09T05:08:04.343Z,88.68
2024-05-09T05:10:36.445Z,88.96
2024-05-09T05:13:17.206Z,88.02
2024-05-09T05:15:44.957Z,88.10
2024-05-09T05:18:11.871Z,89.39
2024-05-09T05:20:38.822Z,89.38
2024-05-09T05:23:08.286Z,89.16
2024-05-09T05:25:37.656Z,89.76
2024-05-09T05:28:04.989Z,88.13
2024-05-09T05:30:34.708Z,89.50
2024-05-09T05:33:02.337Z,88.42
2024-05-09T05:35:29.118Z,87.61
2024-05-09T05:37:56.027Z,87.93
2024-05-09T05:40:32.109Z,87.63
2024-05-09T05:43:05.338Z,87.32
2024-05-09T05:45:32.092Z,88.23
2024-05-09T05:47:59.956Z,88.10
2024-05-09T05:50:32.692Z,87.66
2024-05-09T05:53:03.145Z,88.01
2024-05-09T05:55:30.028Z,87.88
2024-05-09T05:57:56.853Z,88.83
2024-05-09T06:00:34.099Z,88.68
2024-05-09T06:03:05.163Z,89.72
2024-05-09T06:05:32.484Z,90.01
2024-05-09T06:07:59.590Z,89.80
2024-05-09T06:10:34.840Z,90.21
2024-05-09T06:13:05.628Z,89.58
2024-05-09T06:15:35.019Z,88.63
2024-05-09T06:18:02.170Z,88.09
2024-05-09T06:20:35.750Z,88.20
2024-05-09T06:23:05.250Z,88.10
2024-05-09T06:25:32.196Z,88.49
2024-05-09T06:27:59.605Z,87.16
2024-05-09T06:30:35.135Z,87.38
2024-05-09T06:33:10.650Z,86.34
2024-05-09T06:35:39.156Z,86.27
2024-05-09T06:38:08.770Z,85.50
2024-05-09T06:40:38.641Z,86.52
2024-05-09T06:43:10.815Z,84.86
2024-05-09T06:45:39.559Z,85.03
2024-05-09T06:48:10.154Z,85.61
2024-05-09T06:50:38.879Z,85.75
2024-05-09T06:53:06.810Z,85.74
2024-05-09T06:55:33.609Z,85.01
2024-05-09T06:58:00.365Z,85.21
2024-05-09T07:00:34.837Z,82.67
2024-05-09T07:03:11.900Z,82.58
2024-05-09T07:05:40.302Z,82.50
2024-05-09T07:08:07.532Z,78.78
2024-05-09T07:10:35.914Z,76.99
2024-05-09T07:13:03.618Z,74.23
2024-05-09T07:15:31.128Z,69.92
2024-05-09T07:17:57.983Z,69.14
2024-05-09T07:20:34.017Z,67.27
2024-05-09T07:23:02.376Z,67.98
2024-05-09T07:25:29.369Z,67.02
2024-05-09T07:27:56.206Z,65.55
2024-05-09T07:30:27.866Z,66.08
2024-05-09T07:33:00.522Z,65.25
2024-05-09T07:35:30.388Z,65.58
2024-05-09T07:37:57.459Z,65.01
2024-05-09T07:40:32.703Z,66.20
2024-05-09T07:43:03.216Z,65.65
2024-05-09T07:45:45.842Z,64.78
2024-05-09T07:53:38.988Z,62.55
2024-05-09T07:56:09.373Z,61.50
2024-05-09T07:58:36.872Z,60.53
2024-05-09T08:01:03.883Z,58.49
2024-05-09T08:03:30.741Z,59.09
2024-05-09T08:06:00.196Z,59.60
2024-05-09T08:08:26.955Z,58.34
2024-05-09T08:10:53.852Z,61.34
2024-05-09T08:13:20.750Z,59.62
2024-05-09T08:15:47.586Z,57.36
2024-05-09T08:18:14.342Z,58.31
2024-05-09T08:20:42.202Z,58.02
2024-05-09T08:23:11.488Z,55.32
2024-05-09T08:25:38.791Z,55.96
2024-05-09T08:28:06.200Z,55.00
2024-05-09T08:30:37.048Z,57.46
2024-05-09T08:33:06.525Z,54.89
2024-05-09T08:35:34.209Z,57.14
2024-05-09T08:38:02.574Z,56.90
2024-05-09T08:40:35.721Z,56.04
2024-05-09T08:43:07.161Z,52.91
2024-05-09T08:45:35.432Z,57.59
2024-05-09T08:48:05.785Z,54.08
2024-05-09T08:50:38.730Z,54.92
2024-05-09T08:53:06.802Z,58.71
2024-05-09T08:55:40.250Z,55.11
2024-05-09T08:58:10.771Z,54.73
2024-05-09T09:00:38.958Z,55.74
2024-05-09T09:03:07.389Z,52.52
2024-05-09T09:05:37.733Z,53.12
2024-05-09T09:10:37.002Z,53.85
2024-05-09T09:13:05.258Z,55.98
2024-05-09T09:15:32.461Z,55.13
2024-05-09T09:18:00.574Z,51.37
2024-05-09T09:20:35.338Z,52.78
2024-05-09T09:23:04.252Z,52.38
2024-05-09T09:25:31.265Z,49.88
2024-05-09T09:28:00.741Z,52.59
2024-05-09T09:30:35.247Z,49.78
2024-05-09T09:33:05.098Z,50.59
2024-05-09T09:35:32.547Z,50.15
2024-05-09T09:38:02.466Z,51.61
2024-05-09T09:40:35.930Z,51.29
2024-05-09T09:43:12.433Z,49.45
2024-05-09T09:45:40.052Z,51.00
2024-05-09T09:48:08.424Z,49.74
2024-05-09T09:50:36.114Z,51.93
2024-05-09T09:53:04.009Z,52.74
2024-05-09T09:55:32.704Z,53.31
2024-05-09T09:57:59.809Z,56.02
2024-05-09T10:03:00.108Z,52.77
2024-05-09T10:05:27.350Z,52.40
2024-05-09T10:07:54.726Z,53.78
2024-05-09T10:10:31.585Z,51.89
2024-05-09T10:13:00.220Z,53.78
2024-05-09T10:15:31.167Z,52.38
2024-05-09T10:18:05.405Z,52.81
2024-05-09T10:20:40.075Z,53.16
2024-05-09T10:23:23.004Z,53.49
2024-05-09T10:25:55.490Z,52.41
2024-05-09T10:28:25.581Z,51.70
2024-05-09T10:31:03.254Z,48.35
2024-05-09T10:33:36.975Z,47.63
2024-05-09T10:36:04.202Z,48.85
2024-05-09T10:38:31.073Z,50.07
2024-05-09T10:41:00.079Z,53.88
2024-05-09T10:43:27.347Z,51.66
2024-05-09T10:45:54.167Z,53.40
2024-05-09T10:48:23.665Z,53.22
2024-05-09T10:50:50.371Z,53.81
2024-05-09T10:53:19.141Z,53.70
2024-05-09T10:55:56.431Z,51.86
2024-05-09T10:58:23.296Z,49.53
2024-05-09T11:00:50.477Z,48.87
2024-05-09T11:03:17.976Z,51.68
2024-05-09T11:05:47.570Z,50.49
2024-05-09T11:08:14.424Z,49.51
2024-05-09T11:10:41.039Z,49.02
2024-05-09T11:13:07.875Z,48.91
2024-05-09T11:15:39.036Z,49.19
2024-05-09T11:18:06.096Z,47.33
2024-05-09T11:20:36.181Z,47.91
2024-05-09T11:23:07.633Z,46.94
2024-05-09T11:25:34.415Z,49.94
2024-05-09T11:28:01.187Z,49.25
2024-05-09T11:30:31.990Z,51.15
2024-05-09T11:32:59.498Z,49.33
2024-05-09T11:35:26.972Z,51.03
2024-05-09T11:37:53.728Z,48.07
2024-05-09T11:40:25.868Z,48.52
2024-05-09T11:42:59.004Z,50.87
2024-05-09T11:45:25.701Z,44.15
2024-05-09T11:47:52.305Z,45.70
2024-05-09T11:50:27.091Z,45.74
2024-05-09T11:52:57.218Z,41.88
2024-05-09T11:55:28.235Z,43.55
2024-05-09T11:57:55.840Z,44.29
2024-05-09T12:00:29.771Z,44.54
2024-05-09T12:03:04.929Z,47.71
2024-05-09T12:05:32.562Z,48.04
2024-05-09T12:08:02.062Z,47.15
2024-05-09T12:10:34.316Z,42.00
2024-05-09T12:13:04.175Z,41.96
2024-05-09T12:15:32.619Z,41.39
2024-05-09T12:18:02.734Z,43.24
2024-05-09T12:20:36.628Z,44.62
2024-05-09T12:23:06.024Z,44.55
2024-05-09T12:25:36.242Z,44.41
2024-05-09T12:28:03.231Z,44.82
2024-05-09T12:30:36.597Z,42.25
2024-05-09T12:33:07.145Z,43.86
2024-05-09T12:35:33.997Z,43.94
2024-05-09T12:38:00.669Z,43.79
2024-05-09T12:40:35.456Z,44.28
2024-05-09T12:43:08.846Z,44.28
2024-05-09T12:45:36.821Z,44.07
2024-05-09T12:48:06.889Z,45.37
2024-05-09T12:50:34.680Z,46.91
2024-05-09T12:53:02.742Z,47.63
2024-05-09T12:55:36.453Z,47.54
2024-05-09T12:58:10.936Z,48.29
2024-05-09T13:00:37.871Z,47.91
2024-05-09T13:03:05.211Z,46.82
2024-05-09T13:05:32.331Z,47.03
2024-05-09T13:08:00.504Z,46.94
2024-05-09T13:10:32.086Z,47.20
2024-05-09T13:13:00.796Z,44.69
2024-05-09T13:15:31.184Z,46.43
2024-05-09T13:18:01.870Z,44.08
2024-05-09T13:20:33.501Z,43.57
2024-05-09T13:23:03.017Z,42.69
2024-05-09T13:25:29.746Z,41.78
2024-05-09T13:27:56.481Z,40.92
2024-05-09T13:30:29.789Z,45.39
2024-05-09T13:33:09.118Z,43.81
2024-05-09T13:35:36.338Z,43.45
2024-05-09T13:38:04.456Z,42.68
2024-05-09T13:40:34.673Z,45.71
2024-05-09T13:43:03.338Z,44.64
2024-05-09T13:45:30.468Z,43.59
2024-05-09T13:47:57.544Z,43.67
2024-05-09T13:50:34.085Z,42.08
2024-05-09T13:53:03.008Z,41.57
2024-05-09T13:55:29.792Z,42.95
2024-05-09T13:57:56.842Z,44.57
2024-05-09T14:00:37.784Z,42.31
2024-05-09T14:03:10.819Z,44.94
2024-05-09T14:05:40.434Z,44.52
2024-05-09T14:08:08.523Z,44.04
2024-05-09T14:10:35.583Z,44.28
2024-05-09T14:13:02.397Z,45.58
2024-05-09T14:15:29.429Z,44.55
2024-05-09T14:17:56.289Z,44.00
2024-05-09T14:20:30.268Z,44.08
2024-05-09T14:23:01.353Z,45.76
2024-05-09T14:25:29.417Z,46.74
2024-05-09T14:27:57.616Z,45.17
2024-05-09T14:30:31.050Z,44.65
2024-05-09T14:33:03.648Z,41.62
2024-05-09T14:35:30.482Z,43.48
2024-05-09T14:37:57.199Z,41.41
2024-05-09T14:40:36.864Z,41.87
2024-05-09T14:43:09.703Z,43.00
2024-05-09T14:45:36.519Z,46.97
2024-05-09T14:48:03.976Z,43.95
2024-05-09T14:50:36.226Z,43.06
2024-05-09T14:53:06.823Z,40.64
2024-05-09T14:55:38.783Z,41.31
2024-05-09T14:58:06.389Z,43.86
2024-05-09T15:00:36.222Z,43.33
2024-05-09T15:03:04.793Z,43.16
2024-05-09T15:05:31.958Z,44.18
2024-05-09T15:07:59.303Z,44.69
2024-05-09T15:10:33.875Z,43.20
2024-05-09T15:13:07.268Z,43.63
2024-05-09T15:15:35.758Z,42.91
2024-05-09T15:18:03.816Z,44.78
2024-05-09T15:20:35.230Z,44.24
2024-05-09T15:23:05.027Z,44.28
2024-05-09T15:25:33.045Z,44.05
2024-05-09T15:27:59.822Z,44.69
2024-05-09T15:30:32.304Z,44.16
2024-05-09T15:33:01.395Z,46.60
2024-05-09T15:35:28.513Z,45.53
2024-05-09T15:37:55.588Z,45.93
2024-05-09T15:40:31.363Z,47.26
2024-05-09T15:43:05.351Z,46.00
2024-05-09T15:45:35.463Z,45.90
2024-05-09T15:48:02.999Z,46.64
2024-05-09T15:50:37.093Z,46.18
2024-05-09T15:53:08.215Z,47.31
2024-05-09T15:55:35.857Z,46.82
2024-05-09T15:58:03.925Z,45.69
2024-05-09T16:00:38.391Z,46.03
2024-05-09T16:03:12.830Z,46.61
2024-05-09T16:05:41.526Z,46.78
2024-05-09T16:08:08.740Z,47.20
2024-05-09T16:10:36.130Z,46.35
2024-05-09T16:13:03.977Z,46.16
2024-05-09T16:15:31.170Z,47.51
2024-05-09T16:17:58.095Z,45.69
2024-05-09T16:20:35.131Z,47.43
2024-05-09T16:23:06.878Z,45.99
2024-05-09T16:25:33.677Z,46.67
2024-05-09T16:28:00.869Z,46.68
2024-05-09T16:30:34.098Z,47.82
2024-05-09T16:33:03.042Z,47.41
2024-05-09T16:35:32.939Z,47.52
2024-05-09T16:38:01.435Z,47.67
2024-05-09T16:40:36.228Z,47.85
2024-05-09T16:43:06.705Z,48.62
2024-05-09T16:45:34.018Z,48.03
2024-05-09T16:48:01.642Z,48.47
2024-05-09T16:50:32.807Z,49.74
2024-05-09T16:53:04.504Z,49.83
2024-05-09T16:55:31.922Z,49.72
2024-05-09T16:57:58.914Z,48.40
2024-05-09T17:00:35.865Z,49.27
2024-05-09T17:03:09.109Z,49.33
2024-05-09T17:05:36.513Z,50.07
2024-05-09T17:08:07.293Z,50.42
2024-05-09T17:10:35.779Z,50.34
2024-05-09T17:13:03.366Z,51.68
2024-05-09T17:15:31.631Z,51.99
2024-05-09T17:17:58.435Z,51.89
2024-05-09T17:20:32.024Z,51.28
2024-05-09T17:23:02.480Z,50.80
2024-05-09T17:25:31.986Z,51.04
2024-05-09T17:28:05.324Z,50.99
2024-05-09T17:30:36.082Z,51.59
2024-05-09T17:33:06.081Z,52.22
2024-05-09T17:35:33.079Z,52.30
2024-05-09T17:38:01.487Z,52.08
2024-05-09T17:40:33.539Z,52.04
2024-05-09T17:43:06.566Z,52.89
2024-05-09T17:45:34.930Z,53.08
2024-05-09T17:48:02.289Z,52.91
2024-05-09T17:50:35.776Z,52.99
2024-05-09T17:53:04.818Z,54.28
2024-05-09T17:55:31.903Z,53.95
2024-05-09T17:57:58.909Z,54.33
2024-05-09T18:00:36.732Z,55.18
2024-05-09T18:03:07.440Z,54.21
2024-05-09T18:05:35.572Z,54.88
2024-05-09T18:08:03.202Z,56.07
2024-05-09T18:10:35.719Z,56.16
2024-05-09T18:13:05.956Z,57.70
2024-05-09T18:15:36.027Z,56.38
2024-05-09T18:18:03.832Z,57.25
2024-05-09T18:20:40.479Z,56.15
2024-05-09T18:23:11.424Z,57.53
2024-05-09T18:25:38.195Z,56.75
2024-05-09T18:28:06.319Z,56.99
2024-05-09T18:30:37.168Z,57.28
2024-05-09T18:33:06.410Z,58.63
2024-05-09T18:35:34.607Z,57.32
2024-05-09T18:38:01.364Z,58.26
2024-05-09T18:40:33.824Z,59.16
2024-05-09T18:43:05.838Z,59.29
2024-05-09T18:45:37.397Z,59.52
2024-05-09T18:48:06.231Z,61.13
2024-05-09T18:50:37.626Z,60.89
2024-05-09T18:53:06.806Z,61.47
2024-05-09T18:55:33.740Z,61.24
2024-05-09T18:58:00.816Z,61.14
2024-05-09T19:00:34.494Z,61.35
2024-05-09T19:03:12.413Z,61.61
2024-05-09T19:05:41.484Z,62.05
2024-05-09T19:08:09.150Z,62.53
2024-05-09T19:10:37.441Z,62.39
2024-05-09T19:13:09.069Z,62.90
2024-05-09T19:15:39.317Z,62.75
2024-05-09T19:18:09.773Z,62.95
2024-05-09T19:20:37.475Z,63.53
2024-05-09T19:23:05.874Z,63.98
2024-05-09T19:25:33.110Z,64.28
2024-05-09T19:27:59.843Z,63.91
2024-05-09T19:30:36.526Z,64.60
2024-05-09T19:33:12.746Z,64.61
2024-05-09T19:35:40.511Z,65.45
2024-05-09T19:38:07.336Z,64.82
2024-05-09T19:40:35.299Z,66.18
2024-05-09T19:43:03.505Z,66.12
2024-05-09T19:45:32.169Z,67.16
2024-05-09T19:47:59.133Z,67.13
2024-05-09T19:50:37.008Z,67.63
2024-05-09T19:53:09.084Z,68.50
2024-05-09T19:55:35.851Z,68.44
2024-05-09T19:58:05.204Z,69.47
2024-05-09T20:00:36.286Z,70.20
2024-05-09T20:03:05.662Z,70.14
2024-05-09T20:05:36.006Z,70.46
2024-05-09T20:08:03.286Z,70.64
2024-05-09T20:10:33.012Z,70.95
2024-05-09T20:13:02.114Z,71.48
2024-05-09T20:15:29.068Z,72.32
2024-05-09T20:17:56.038Z,72.58
2024-05-09T20:20:33.016Z,72.69
2024-05-09T20:23:07.737Z,72.88
2024-05-09T20:25:34.401Z,73.66
2024-05-09T20:28:01.311Z,73.93
2024-05-09T20:30:31.935Z,73.70
2024-05-09T20:33:02.730Z,74.18
2024-05-09T20:35:31.860Z,74.44
2024-05-09T20:37:59.120Z,74.93
2024-05-09T20:40:32.947Z,74.22
2024-05-09T20:43:03.658Z,74.15
2024-05-09T20:45:30.496Z,74.36
2024-05-09T20:47:57.571Z,75.17
2024-05-09T20:50:35.364Z,74.75
2024-05-09T20:53:07.986Z,75.19
2024-05-09T20:55:37.397Z,75.96
2024-05-09T20:58:04.847Z,76.27
2024-05-09T21:00:39.514Z,76.77
2024-05-09T21:03:09.777Z,76.70
2024-05-09T21:05:36.865Z,76.73
2024-05-09T21:08:04.146Z,77.04
2024-05-09T21:10:33.318Z,77.30
2024-05-09T21:13:04.300Z,77.34
2024-05-09T21:15:31.748Z,77.74
2024-05-09T21:17:58.911Z,77.84
2024-05-09T21:20:31.114Z,78.46
2024-05-09T21:22:59.466Z,78.43
2024-05-09T21:25:26.229Z,78.90
2024-05-09T21:27:53.333Z,78.99
2024-05-09T21:30:32.180Z,79.50
2024-05-09T21:33:08.020Z,79.46
2024-05-09T21:35:34.957Z,80.28
2024-05-09T21:38:01.632Z,79.20
2024-05-09T21:40:34.191Z,79.92
2024-05-09T21:43:02.959Z,79.54
2024-05-09T21:45:33.112Z,80.32
2024-05-09T21:48:00.022Z,79.20
2024-05-09T21:50:35.754Z,80.20
2024-05-09T21:53:06.996Z,80.94
2024-05-09T21:55:34.001Z,80.50
2024-05-09T21:58:00.966Z,80.89
2024-05-09T22:00:34.797Z,81.04
2024-05-09T22:03:08.333Z,80.81
2024-05-09T22:05:36.152Z,81.37
2024-05-09T22:08:03.191Z,81.75
2024-05-09T22:10:34.073Z,81.30
2024-05-09T22:13:03.210Z,80.77
2024-05-09T22:15:30.155Z,80.20
2024-05-09T22:17:57.639Z,79.74
2024-05-09T22:20:34.340Z,80.63
2024-05-09T22:23:05.125Z,81.22
2024-05-09T22:25:32.625Z,81.63
2024-05-09T22:28:00.596Z,82.22
2024-05-09T22:30:34.800Z,81.55
2024-05-09T22:33:06.051Z,81.64
2024-05-09T22:35:35.560Z,82.14
2024-05-09T22:38:02.477Z,81.81
2024-05-09T22:40:38.847Z,81.85
2024-05-09T22:43:13.683Z,81.46
2024-05-09T22:45:40.730Z,81.63
2024-05-09T22:48:08.715Z,82.06
2024-05-09T22:50:38.343Z,81.88
2024-05-09T22:53:05.618Z,82.47
2024-05-09T22:55:32.412Z,82.06
2024-05-09T22:57:59.187Z,81.83
2024-05-09T23:00:31.158Z,82.57
2024-05-09T23:02:59.996Z,82.14
2024-05-09T23:05:27.171Z,82.62
2024-05-09T23:07:56.632Z,81.58
2024-05-09T23:10:31.427Z,81.49
2024-05-09T23:13:02.781Z,82.06
2024-05-09T23:15:29.884Z,82.85
2024-05-09T23:17:57.440Z,82.92
2024-05-09T23:22:56.886Z,82.73
2024-05-09T23:25:23.684Z,83.01
2024-05-09T23:27:50.432Z,83.06
2024-05-09T23:30:28.447Z,82.26
2024-05-09T23:33:01.501Z,83.02
2024-05-09T23:35:28.269Z,82.65
2024-05-09T23:37:57.597Z,82.67
2024-05-09T23:40:36.808Z,82.89
2024-05-09T23:43:07.168Z,83.78
2024-05-09T23:45:34.288Z,83.24
2024-05-09T23:48:01.508Z,84.10
2024-05-09T23:50:34.627Z,84.08
2024-05-09T23:53:08.657Z,84.30
2024-05-09T23:55:36.529Z,83.67
2024-05-09T23:58:03.472Z,83.48
